createdAt,value
2023-07-24T00:00:45.816Z,54.44
2023-07-24T00:01:45.804Z,54.64
2023-07-24T00:02:45.854Z,54.44
2023-07-24T00:03:45.841Z,54.24
2023-07-24T00:04:45.777Z,54.55
2023-07-24T00:05:45.757Z,54.64
2023-07-24T00:06:45.745Z,54.55
2023-07-24T00:07:45.738Z,54.55
2023-07-24T00:08:45.731Z,54.44
2023-07-24T00:09:45.720Z,54.94
2023-07-24T00:10:45.707Z,54.44
2023-07-24T00:11:45.692Z,54.22
2023-07-24T00:12:45.704Z,54.44
2023-07-24T00:13:45.673Z,54.12
2023-07-24T00:14:45.674Z,54.32
2023-07-24T00:15:45.651Z,54.32
2023-07-24T00:16:45.680Z,54.92
2023-07-24T00:17:45.686Z,54.85
2023-07-24T00:18:45.628Z,54.12
2023-07-24T00:19:45.607Z,54.32
2023-07-24T00:20:45.601Z,54.14
2023-07-24T00:21:45.589Z,54.42
2023-07-24T00:22:45.581Z,54.62
2023-07-24T00:23:45.597Z,54.52
2023-07-24T00:24:45.580Z,54.52
2023-07-24T00:25:45.544Z,54.42
2023-07-24T00:26:45.537Z,54.62
2023-07-24T00:27:45.522Z,54.74
2023-07-24T00:28:45.526Z,54.52
2023-07-24T00:29:45.504Z,54.52
2023-07-24T00:30:45.516Z,54.44
2023-07-24T00:31:45.482Z,54.55
2023-07-24T00:32:45.601Z,54.55
2023-07-24T00:33:45.461Z,54.35
2023-07-24T00:34:45.450Z,54.24
2023-07-24T00:35:45.459Z,54.37
2023-07-24T00:36:45.445Z,54.35
2023-07-24T00:37:45.423Z,54.37
2023-07-24T00:38:45.416Z,54.57
2023-07-24T00:39:45.402Z,54.57
2023-07-24T00:40:45.390Z,54.47
2023-07-24T00:41:45.376Z,54.27
2023-07-24T00:42:45.368Z,53.97
2023-07-24T00:43:45.356Z,54.20
2023-07-24T00:44:45.356Z,54.20
2023-07-24T00:45:45.360Z,53.89
2023-07-24T00:46:45.377Z,54.00
2023-07-24T00:47:45.347Z,54.12
2023-07-24T00:48:45.306Z,54.22
2023-07-24T00:49:45.292Z,54.12
2023-07-24T00:50:45.287Z,54.12
2023-07-24T00:51:45.273Z,54.12
2023-07-24T00:52:45.270Z,54.32
2023-07-24T00:53:45.267Z,54.45
2023-07-24T00:54:45.242Z,54.45
2023-07-24T00:55:45.227Z,54.65
2023-07-24T00:56:45.224Z,54.35
2023-07-24T00:57:45.206Z,54.75
2023-07-24T00:58:45.220Z,54.65
2023-07-24T00:59:45.184Z,54.55
2023-07-24T01:00:45.232Z,55.05
2023-07-24T01:01:45.164Z,54.95
2023-07-24T01:02:45.203Z,55.13
2023-07-24T01:03:45.141Z,55.13
2023-07-24T01:04:45.139Z,55.32
2023-07-24T01:05:45.120Z,55.52
2023-07-24T01:06:45.628Z,55.30
2023-07-24T01:07:45.733Z,55.60
2023-07-24T01:08:45.091Z,55.40
2023-07-24T01:09:45.083Z,55.10
2023-07-24T01:10:45.074Z,55.07
2023-07-24T01:11:45.058Z,55.10
2023-07-24T01:12:45.057Z,54.97
2023-07-24T01:13:45.036Z,54.87
2023-07-24T01:14:45.039Z,54.97
2023-07-24T01:15:45.016Z,55.07
2023-07-24T01:16:45.052Z,55.17
2023-07-24T01:17:45.031Z,55.07
2023-07-24T01:18:44.990Z,55.15
2023-07-24T01:19:44.971Z,55.07
2023-07-24T01:20:44.960Z,54.97
2023-07-24T01:21:44.957Z,55.05
2023-07-24T01:22:44.942Z,54.97
2023-07-24T01:23:44.933Z,54.87
2023-07-24T01:24:44.996Z,55.07
2023-07-24T01:25:44.907Z,54.97
2023-07-24T01:26:44.903Z,54.94
2023-07-24T01:27:44.903Z,54.77
2023-07-24T01:28:44.880Z,54.87
2023-07-24T01:29:44.864Z,55.07
2023-07-24T01:30:44.861Z,55.07
2023-07-24T01:31:44.862Z,54.97
2023-07-24T01:32:44.899Z,54.77
2023-07-24T01:33:44.828Z,55.07
2023-07-24T01:34:44.821Z,54.87
2023-07-24T01:35:44.815Z,55.07
2023-07-24T01:36:44.793Z,54.97
2023-07-24T01:37:44.787Z,54.67
2023-07-24T01:38:44.774Z,54.87
2023-07-24T01:39:44.778Z,54.87
2023-07-24T01:40:44.750Z,55.17
2023-07-24T01:41:44.736Z,54.87
2023-07-24T01:42:44.728Z,55.07
2023-07-24T01:43:44.719Z,54.87
2023-07-24T01:44:44.716Z,54.77
2023-07-24T01:45:44.699Z,54.87
2023-07-24T01:46:44.764Z,54.47
2023-07-24T01:47:44.727Z,54.39
2023-07-24T01:48:44.680Z,54.20
2023-07-24T01:49:44.647Z,54.30
2023-07-24T01:50:44.648Z,54.17
2023-07-24T01:51:44.641Z,54.30
2023-07-24T01:52:44.676Z,54.39
2023-07-24T01:53:44.615Z,55.00
2023-07-24T01:54:44.604Z,55.10
2023-07-24T01:55:44.603Z,54.90
2023-07-24T01:56:44.587Z,55.10
2023-07-24T01:57:44.587Z,55.10
2023-07-24T01:58:44.566Z,55.10
2023-07-24T01:59:44.549Z,55.00
2023-07-24T02:00:44.536Z,54.90
2023-07-24T02:01:44.544Z,54.80
2023-07-24T02:02:44.542Z,54.90
2023-07-24T02:03:44.531Z,54.60
2023-07-24T02:04:44.498Z,54.80
2023-07-24T02:05:44.488Z,54.90
2023-07-24T02:06:44.497Z,54.80
2023-07-24T02:07:44.460Z,55.00
2023-07-24T02:08:44.449Z,55.00
2023-07-24T02:09:44.436Z,54.90
2023-07-24T02:10:44.428Z,55.00
2023-07-24T02:11:44.420Z,55.00
2023-07-24T02:12:44.402Z,55.20
2023-07-24T02:13:44.391Z,55.20
2023-07-24T02:14:44.393Z,54.90
2023-07-24T02:15:44.377Z,55.10
2023-07-24T02:16:44.419Z,55.10
2023-07-24T02:17:44.409Z,55.10
2023-07-24T02:18:44.348Z,55.00
2023-07-24T02:19:44.347Z,55.20
2023-07-24T02:20:44.315Z,55.10
2023-07-24T02:21:44.315Z,54.70
2023-07-24T02:22:44.305Z,55.00
2023-07-24T02:23:44.284Z,55.00
2023-07-24T02:24:44.329Z,55.10
2023-07-24T02:25:44.259Z,55.00
2023-07-24T02:26:44.251Z,55.00
2023-07-24T02:27:44.244Z,55.10
2023-07-24T02:28:44.229Z,54.90
2023-07-24T02:29:44.219Z,55.07
2023-07-24T02:30:44.213Z,55.30
2023-07-24T02:31:44.268Z,55.40
2023-07-24T02:32:44.236Z,55.60
2023-07-24T02:33:44.174Z,55.47
2023-07-24T02:34:44.170Z,55.37
2023-07-24T02:35:44.153Z,55.27
2023-07-24T02:36:44.148Z,55.37
2023-07-24T02:37:44.153Z,55.47
2023-07-24T02:38:44.129Z,55.47
2023-07-24T02:39:44.117Z,55.37
2023-07-24T02:40:44.100Z,55.35
2023-07-24T02:41:44.087Z,54.94
2023-07-24T02:42:44.093Z,54.97
2023-07-24T02:43:44.068Z,55.07
2023-07-24T02:44:44.067Z,54.97
2023-07-24T02:45:44.060Z,54.87
2023-07-24T02:46:44.033Z,54.77
2023-07-24T02:47:44.072Z,54.97
2023-07-24T02:48:44.021Z,54.70
2023-07-24T02:49:44.008Z,54.90
2023-07-24T02:50:43.993Z,55.00
2023-07-24T02:51:43.985Z,54.20
2023-07-24T02:52:43.979Z,55.00
2023-07-24T02:53:43.963Z,54.39
2023-07-24T02:54:43.957Z,54.20
2023-07-24T02:55:43.940Z,54.20
2023-07-24T02:56:43.936Z,54.52
2023-07-24T02:57:43.915Z,54.22
2023-07-24T02:58:43.920Z,55.13
2023-07-24T02:59:43.898Z,55.02
2023-07-24T03:00:43.901Z,54.72
2023-07-24T03:01:43.880Z,55.22
2023-07-24T03:02:43.946Z,55.05
2023-07-24T03:03:43.887Z,55.15
2023-07-24T03:04:43.854Z,55.05
2023-07-24T03:05:43.837Z,55.15
2023-07-24T03:06:43.832Z,55.05
2023-07-24T03:07:43.810Z,55.25
2023-07-24T03:08:43.806Z,55.05
2023-07-24T03:09:43.818Z,55.15
2023-07-24T03:10:43.825Z,55.15
2023-07-24T03:11:43.764Z,55.05
2023-07-24T03:12:43.761Z,55.25
2023-07-24T03:13:43.738Z,55.15
2023-07-24T03:14:43.728Z,55.55
2023-07-24T03:15:43.734Z,55.18
2023-07-24T03:16:43.715Z,55.25
2023-07-24T03:17:43.730Z,55.15
2023-07-24T03:18:43.692Z,55.47
2023-07-24T03:19:43.688Z,55.15
2023-07-24T03:20:43.676Z,55.58
2023-07-24T03:21:43.654Z,55.08
2023-07-24T03:22:43.640Z,55.47
2023-07-24T03:23:43.633Z,54.97
2023-07-24T03:24:43.648Z,55.08
2023-07-24T03:25:43.618Z,55.28
2023-07-24T03:26:43.603Z,55.28
2023-07-24T03:27:43.586Z,55.38
2023-07-24T03:28:43.579Z,55.38
2023-07-24T03:29:43.567Z,55.18
2023-07-24T03:30:43.578Z,55.47
2023-07-24T03:31:43.578Z,55.38
2023-07-24T03:32:43.590Z,55.58
2023-07-24T03:33:43.517Z,55.47
2023-07-24T03:34:43.511Z,55.47
2023-07-24T03:35:43.513Z,55.60
2023-07-24T03:36:43.482Z,55.80
2023-07-24T03:37:43.482Z,55.51
2023-07-24T03:38:43.480Z,55.38
2023-07-24T03:39:43.459Z,55.47
2023-07-24T03:40:43.441Z,55.30
2023-07-24T03:41:43.430Z,55.51
2023-07-24T03:42:43.421Z,55.47
2023-07-24T03:43:43.403Z,55.60
2023-07-24T03:44:43.397Z,55.40
2023-07-24T03:45:43.393Z,55.47
2023-07-24T03:46:43.422Z,55.68
2023-07-24T03:47:43.381Z,55.71
2023-07-24T03:48:43.358Z,55.80
2023-07-24T03:49:43.340Z,55.68
2023-07-24T03:50:43.332Z,55.58
2023-07-24T03:51:43.410Z,55.58
2023-07-24T03:52:43.306Z,55.58
2023-07-24T03:53:43.305Z,55.68
2023-07-24T03:54:43.284Z,55.58
2023-07-24T03:55:43.295Z,55.47
2023-07-24T03:56:43.261Z,55.85
2023-07-24T03:57:43.248Z,55.65
2023-07-24T03:58:43.242Z,56.05
2023-07-24T03:59:43.239Z,55.75
2023-07-24T04:00:43.251Z,55.55
2023-07-24T04:01:43.221Z,55.73
2023-07-24T04:02:43.251Z,55.52
2023-07-24T04:03:43.190Z,55.52
2023-07-24T04:04:43.173Z,55.63
2023-07-24T04:05:43.156Z,55.52
2023-07-24T04:06:43.154Z,55.73
2023-07-24T04:07:43.142Z,55.63
2023-07-24T04:08:43.239Z,55.52
2023-07-24T04:09:43.245Z,55.43
2023-07-24T04:10:43.211Z,55.52
2023-07-24T04:11:43.199Z,55.40
2023-07-24T04:12:43.199Z,55.40
2023-07-24T04:13:43.074Z,55.60
2023-07-24T04:14:43.163Z,55.50
2023-07-24T04:15:43.053Z,55.60
2023-07-24T04:16:43.111Z,55.87
2023-07-24T04:17:43.092Z,56.00
2023-07-24T04:18:43.019Z,55.98
2023-07-24T04:19:43.016Z,55.87
2023-07-24T04:20:42.994Z,55.57
2023-07-24T04:21:42.986Z,55.67
2023-07-24T04:22:42.978Z,55.94
2023-07-24T04:23:42.964Z,55.94
2023-07-24T04:24:42.988Z,55.55
2023-07-24T04:25:42.964Z,55.85
2023-07-24T04:26:42.938Z,55.85
2023-07-24T04:27:42.999Z,56.05
2023-07-24T04:28:42.978Z,55.74
2023-07-24T04:29:42.938Z,55.44
2023-07-24T04:30:42.923Z,55.62
2023-07-24T04:31:42.904Z,55.82
2023-07-24T04:32:42.913Z,55.62
2023-07-24T04:33:42.857Z,55.42
2023-07-24T04:34:42.842Z,55.42
2023-07-24T04:35:42.844Z,55.52
2023-07-24T04:36:42.828Z,55.52
2023-07-24T04:37:42.810Z,55.42
2023-07-24T04:38:42.808Z,55.22
2023-07-24T04:39:43.673Z,55.32
2023-07-24T04:40:42.816Z,55.52
2023-07-24T04:41:42.773Z,55.32
2023-07-24T04:42:42.765Z,55.40
2023-07-24T04:43:42.761Z,55.42
2023-07-24T04:44:42.745Z,55.52
2023-07-24T04:45:42.733Z,55.29
2023-07-24T04:46:42.779Z,55.29
2023-07-24T04:47:42.718Z,55.19
2023-07-24T04:48:42.733Z,54.99
2023-07-24T04:49:42.711Z,54.99
2023-07-24T04:50:42.672Z,55.09
2023-07-24T04:51:42.663Z,54.60
2023-07-24T04:52:42.655Z,54.97
2023-07-24T04:53:42.679Z,54.77
2023-07-24T04:54:42.642Z,54.27
2023-07-24T04:55:42.623Z,54.44
2023-07-24T04:56:42.613Z,54.24
2023-07-24T04:57:42.600Z,54.64
2023-07-24T04:58:42.598Z,54.74
2023-07-24T04:59:44.251Z,54.64
2023-07-24T05:00:42.579Z,54.84
2023-07-24T05:01:42.583Z,54.94
2023-07-24T05:02:42.620Z,55.04
2023-07-24T05:03:42.882Z,55.04
2023-07-24T05:04:42.559Z,54.94
2023-07-24T05:05:45.076Z,54.84
2023-07-24T05:06:42.510Z,54.82
2023-07-24T05:07:42.504Z,54.82
2023-07-24T05:08:43.650Z,54.94
2023-07-24T05:09:42.487Z,54.94
2023-07-24T05:10:42.512Z,54.91
2023-07-24T05:11:42.463Z,54.91
2023-07-24T05:12:42.460Z,54.84
2023-07-24T05:13:42.431Z,54.94
2023-07-24T05:14:42.429Z,54.94
2023-07-24T05:15:42.416Z,54.94
2023-07-24T05:16:42.478Z,54.94
2023-07-24T05:17:42.424Z,55.04
2023-07-24T05:18:42.390Z,54.82
2023-07-24T05:19:42.372Z,54.91
2023-07-24T05:20:42.360Z,54.71
2023-07-24T05:21:42.356Z,53.99
2023-07-24T05:22:42.342Z,54.29
2023-07-24T05:23:42.334Z,54.59
2023-07-24T05:24:42.447Z,54.29
2023-07-24T05:25:42.316Z,54.36
2023-07-24T05:26:42.300Z,53.86
2023-07-24T05:27:44.263Z,53.64
2023-07-24T05:28:42.334Z,53.77
2023-07-24T05:29:42.268Z,53.64
2023-07-24T05:30:42.258Z,53.44
2023-07-24T05:31:42.312Z,53.44
2023-07-24T05:32:42.258Z,53.24
2023-07-24T05:33:42.235Z,53.54
2023-07-24T05:34:43.400Z,53.54
2023-07-24T05:35:42.215Z,53.22
2023-07-24T05:36:42.209Z,53.22
2023-07-24T05:37:42.195Z,53.11
2023-07-24T05:38:42.179Z,53.11
2023-07-24T05:39:42.167Z,53.31
2023-07-24T05:40:42.169Z,53.52
2023-07-24T05:41:42.157Z,53.31
2023-07-24T05:42:42.139Z,53.19
2023-07-24T05:43:42.140Z,53.31
2023-07-24T05:44:42.122Z,53.41
2023-07-24T05:45:42.155Z,52.99
2023-07-24T05:46:42.110Z,53.78
2023-07-24T05:47:42.158Z,53.89
2023-07-24T05:48:42.079Z,53.66
2023-07-24T05:49:42.931Z,53.19
2023-07-24T05:50:42.064Z,53.16
2023-07-24T05:51:42.060Z,53.36
2023-07-24T05:52:42.092Z,52.84
2023-07-24T05:53:42.036Z,53.04
2023-07-24T05:54:42.026Z,52.94
2023-07-24T05:55:42.015Z,52.84
2023-07-24T05:56:42.005Z,53.44
2023-07-24T05:57:42.000Z,53.44
2023-07-24T05:58:42.008Z,53.24
2023-07-24T05:59:41.982Z,53.24
2023-07-24T06:00:41.965Z,53.53
2023-07-24T06:01:42.024Z,53.34
2023-07-24T06:02:42.016Z,52.74
2023-07-24T06:03:41.953Z,52.72
2023-07-24T06:04:42.005Z,53.31
2023-07-24T06:05:41.923Z,52.62
2023-07-24T06:06:42.044Z,53.53
2023-07-24T06:07:41.905Z,53.11
2023-07-24T06:08:41.890Z,53.41
2023-07-24T06:09:41.880Z,53.44
2023-07-24T06:10:41.882Z,53.74
2023-07-24T06:11:41.864Z,53.53
2023-07-24T06:12:41.851Z,53.74
2023-07-24T06:13:41.874Z,53.53
2023-07-24T06:14:41.834Z,53.44
2023-07-24T06:15:41.841Z,53.86
2023-07-24T06:16:41.980Z,53.94
2023-07-24T06:17:41.823Z,53.83
2023-07-24T06:18:41.794Z,53.76
2023-07-24T06:19:41.789Z,53.56
2023-07-24T06:20:41.781Z,53.83
2023-07-24T06:21:41.776Z,53.96
2023-07-24T06:22:41.767Z,53.83
2023-07-24T06:23:41.760Z,53.94
2023-07-24T06:24:41.854Z,53.74
2023-07-24T06:25:41.744Z,53.21
2023-07-24T06:26:41.732Z,53.39
2023-07-24T06:27:41.724Z,52.49
2023-07-24T06:28:41.719Z,52.56
2023-07-24T06:29:41.696Z,52.56
2023-07-24T06:30:41.695Z,52.56
2023-07-24T06:31:41.717Z,52.37
2023-07-24T06:32:41.770Z,52.37
2023-07-24T06:33:41.669Z,52.37
2023-07-24T06:34:41.642Z,52.26
2023-07-24T06:35:41.646Z,52.86
2023-07-24T06:36:41.657Z,52.54
2023-07-24T06:37:41.621Z,52.94
2023-07-24T06:38:41.611Z,52.24
2023-07-24T06:39:41.605Z,52.84
2023-07-24T06:40:41.592Z,52.67
2023-07-24T06:41:41.588Z,53.36
2023-07-24T06:42:41.572Z,52.89
2023-07-24T06:43:41.563Z,53.39
2023-07-24T06:44:41.586Z,52.49
2023-07-24T06:45:41.586Z,52.96
2023-07-24T06:46:41.550Z,52.34
2023-07-24T06:47:41.559Z,52.54
2023-07-24T06:48:41.529Z,52.51
2023-07-24T06:49:41.512Z,51.82
2023-07-24T06:50:41.579Z,52.19
2023-07-24T06:51:41.496Z,51.18
2023-07-24T06:52:41.483Z,51.23
2023-07-24T06:53:41.474Z,50.83
2023-07-24T06:54:41.490Z,50.60
2023-07-24T06:55:41.453Z,49.66
2023-07-24T06:56:41.451Z,49.35
2023-07-24T06:57:41.447Z,49.52
2023-07-24T06:58:41.427Z,49.30
2023-07-24T06:59:41.434Z,49.05
2023-07-24T07:00:41.425Z,48.75
2023-07-24T07:01:41.522Z,48.98
2023-07-24T07:02:41.451Z,49.18
2023-07-24T07:03:41.385Z,49.69
2023-07-24T07:04:41.389Z,49.69
2023-07-24T07:05:41.381Z,49.79
2023-07-24T07:06:41.366Z,49.30
2023-07-24T07:07:41.381Z,49.25
2023-07-24T07:08:41.386Z,48.29
2023-07-24T07:09:41.400Z,48.22
2023-07-24T07:10:41.367Z,45.21
2023-07-24T07:11:41.322Z,42.34
2023-07-24T07:12:41.315Z,39.36
2023-07-24T07:13:41.311Z,37.32
2023-07-24T07:14:41.302Z,38.06
2023-07-24T07:15:41.328Z,40.89
2023-07-24T07:16:41.287Z,39.78
2023-07-24T07:17:41.290Z,40.72
2023-07-24T07:18:41.292Z,40.03
2023-07-24T07:19:41.265Z,40.80
2023-07-24T07:20:41.263Z,40.97
2023-07-24T07:21:41.250Z,39.96
2023-07-24T07:22:41.247Z,37.94
2023-07-24T07:23:41.251Z,35.67
2023-07-24T07:24:41.419Z,36.79
2023-07-24T07:25:41.333Z,35.92
2023-07-24T07:26:41.228Z,37.30
2023-07-24T07:27:41.226Z,36.38
2023-07-24T07:28:41.223Z,35.84
2023-07-24T07:29:41.207Z,36.88
2023-07-24T07:30:42.107Z,33.80
2023-07-24T07:31:41.221Z,33.01
2023-07-24T07:32:41.209Z,32.45
2023-07-24T07:33:41.184Z,31.24
2023-07-24T07:34:41.189Z,30.62
2023-07-24T07:35:41.181Z,30.58
2023-07-24T07:36:41.175Z,31.05
2023-07-24T07:37:41.169Z,31.33
2023-07-24T07:38:41.160Z,30.19
2023-07-24T07:39:41.161Z,30.87
2023-07-24T07:40:41.162Z,32.23
2023-07-24T07:41:41.157Z,32.34
2023-07-24T07:42:42.766Z,32.28
2023-07-24T07:43:41.146Z,33.01
2023-07-24T07:44:41.154Z,34.47
2023-07-24T07:45:41.144Z,35.69
2023-07-24T07:46:41.158Z,36.66
2023-07-24T07:47:41.185Z,37.79
2023-07-24T07:48:41.131Z,38.04
2023-07-24T07:49:41.134Z,38.33
2023-07-24T07:50:41.123Z,38.33
2023-07-24T07:51:41.124Z,37.95
2023-07-24T07:52:41.130Z,37.52
2023-07-24T07:53:41.114Z,37.31
2023-07-24T07:54:41.107Z,38.49
2023-07-24T07:55:41.110Z,39.12
2023-07-24T07:56:41.111Z,38.81
2023-07-24T07:57:41.102Z,39.82
2023-07-24T07:58:41.123Z,40.65
2023-07-24T07:59:41.100Z,40.59
2023-07-24T08:00:41.206Z,41.99
2023-07-24T08:01:41.091Z,41.64
2023-07-24T08:02:41.179Z,42.95
2023-07-24T08:03:41.145Z,43.46
2023-07-24T08:04:41.073Z,43.19
2023-07-24T08:05:41.077Z,43.58
2023-07-24T08:06:41.090Z,43.40
2023-07-24T08:07:41.077Z,43.40
2023-07-24T08:08:41.084Z,41.90
2023-07-24T08:09:41.068Z,41.94
2023-07-24T08:10:41.073Z,40.81
2023-07-24T08:11:41.063Z,39.51
2023-07-24T08:12:41.059Z,39.69
2023-07-24T08:13:41.044Z,39.69
2023-07-24T08:14:41.116Z,39.69
2023-07-24T08:15:41.176Z,40.07
2023-07-24T08:16:41.120Z,40.67
2023-07-24T08:17:41.123Z,40.61
2023-07-24T08:18:41.027Z,41.61
2023-07-24T08:19:41.040Z,41.84
2023-07-24T08:20:41.022Z,41.86
2023-07-24T08:21:41.018Z,42.00
2023-07-24T08:22:41.027Z,43.52
2023-07-24T08:23:41.010Z,43.66
2023-07-24T08:33:41.179Z,46.44
2023-07-24T10:38:22.456Z,51.67
2023-07-24T11:14:42.296Z,44.70
2023-07-24T11:15:42.269Z,45.31
2023-07-24T11:16:44.081Z,45.53
2023-07-24T11:17:42.302Z,46.04
2023-07-24T11:18:53.178Z,46.26
2023-07-24T11:19:42.216Z,46.57
2023-07-24T11:20:42.223Z,46.89
2023-07-24T11:21:42.208Z,47.30
2023-07-24T11:22:42.205Z,47.89
2023-07-24T11:23:42.200Z,47.52
2023-07-24T11:24:42.253Z,47.55
2023-07-24T11:25:42.180Z,47.47
2023-07-24T11:26:43.195Z,48.21
2023-07-24T11:27:42.166Z,48.99
2023-07-24T11:28:42.164Z,48.60
2023-07-24T11:29:42.154Z,48.33
2023-07-24T11:30:42.156Z,48.60
2023-07-24T11:31:42.235Z,48.50
2023-07-24T11:32:42.238Z,47.99
2023-07-24T11:33:42.142Z,47.99
2023-07-24T11:34:42.123Z,48.38
2023-07-24T11:35:42.120Z,47.59
2023-07-24T11:36:42.110Z,47.30
2023-07-24T11:37:42.116Z,47.67
2023-07-24T11:38:42.101Z,47.47
2023-07-24T11:39:42.113Z,47.69
2023-07-24T11:40:42.089Z,47.49
2023-07-24T11:41:42.089Z,47.59
2023-07-24T11:42:42.074Z,47.49
2023-07-24T11:43:42.068Z,47.69
2023-07-24T11:44:42.063Z,47.69
2023-07-24T11:45:42.061Z,46.71
2023-07-24T11:46:42.085Z,47.59
2023-07-24T11:47:42.070Z,47.89
2023-07-24T11:48:42.036Z,47.67
2023-07-24T11:49:42.028Z,46.69
2023-07-24T11:50:42.024Z,47.45
2023-07-24T11:51:42.017Z,47.03
2023-07-24T11:52:42.018Z,46.69
2023-07-24T11:53:42.007Z,46.28
2023-07-24T11:54:41.998Z,45.67
2023-07-24T11:55:41.996Z,46.53
2023-07-24T11:56:42.001Z,46.33
2023-07-24T11:57:41.980Z,45.09
2023-07-24T11:58:41.975Z,44.73
2023-07-24T11:59:41.977Z,44.30
2023-07-24T12:00:41.957Z,44.14
2023-07-24T12:01:41.966Z,44.00
2023-07-24T12:02:42.032Z,43.78
2023-07-24T12:03:42.211Z,43.49
2023-07-24T12:04:41.939Z,43.37
2023-07-24T12:05:41.935Z,44.17
2023-07-24T12:06:41.941Z,44.38
2023-07-24T12:07:44.555Z,44.24
2023-07-24T12:08:41.925Z,44.55
2023-07-24T12:09:41.914Z,44.18
2023-07-24T12:10:41.910Z,44.62
2023-07-24T12:11:45.134Z,45.22
2023-07-24T12:12:41.912Z,45.34
2023-07-24T12:13:41.899Z,44.70
2023-07-24T12:14:41.893Z,44.34
2023-07-24T12:15:41.934Z,45.62
2023-07-24T12:16:41.893Z,46.19
2023-07-24T12:17:41.915Z,45.07
2023-07-24T12:18:41.877Z,44.64
2023-07-24T12:19:41.869Z,45.03
2023-07-24T12:20:41.867Z,44.64
2023-07-24T12:21:41.859Z,44.71
2023-07-24T12:22:41.873Z,43.26
2023-07-24T12:23:41.868Z,43.23
2023-07-24T12:24:41.860Z,41.67
2023-07-24T12:25:41.842Z,41.56
2023-07-24T12:26:41.834Z,42.08
2023-07-24T12:27:41.833Z,43.43
2023-07-24T12:28:41.828Z,43.59
2023-07-24T12:29:41.828Z,44.21
2023-07-24T12:30:41.877Z,44.09
2023-07-24T12:31:41.823Z,44.43
2023-07-24T12:32:41.886Z,44.16
2023-07-24T12:33:41.811Z,44.48
2023-07-24T12:34:41.810Z,44.43
2023-07-24T12:35:41.799Z,43.41
2023-07-24T12:36:41.820Z,44.21
2023-07-24T12:37:41.797Z,43.73
2023-07-24T12:38:41.785Z,43.20
2023-07-24T12:39:41.789Z,41.86
2023-07-24T12:40:41.781Z,42.13
2023-07-24T12:41:41.782Z,43.43
2023-07-24T12:42:41.803Z,43.19
2023-07-24T12:43:41.770Z,43.33
2023-07-24T12:44:41.768Z,43.66
2023-07-24T12:45:41.767Z,44.00
2023-07-24T12:46:41.850Z,43.33
2023-07-24T12:47:41.828Z,43.29
2023-07-24T12:48:41.751Z,42.18
2023-07-24T12:49:44.456Z,41.60
2023-07-24T13:23:49.884Z,44.27
2023-07-24T13:37:24.756Z,44.81
2023-07-24T14:10:19.151Z,49.32
2023-07-24T14:22:37.104Z,51.54
2023-07-24T14:37:38.044Z,53.56
2023-07-24T14:38:37.987Z,54.06
2023-07-24T14:40:42.481Z,54.16
2023-07-24T14:41:42.442Z,54.35
2023-07-24T14:42:42.464Z,54.38
2023-07-24T14:43:42.424Z,54.16
2023-07-24T14:44:42.426Z,54.16
2023-07-24T14:45:42.434Z,54.06
2023-07-24T14:46:42.395Z,54.13
2023-07-24T14:47:42.400Z,53.91
2023-07-24T14:48:42.376Z,53.08
2023-07-24T14:49:42.373Z,52.66
2023-07-24T14:50:42.371Z,52.59
2023-07-24T14:51:42.350Z,51.77
2023-07-24T14:52:42.348Z,51.42
2023-07-24T14:53:42.335Z,51.05
2023-07-24T14:54:42.328Z,50.24
2023-07-24T14:55:42.322Z,49.69
2023-07-24T14:56:53.837Z,48.66
2023-07-24T14:57:42.327Z,48.64
2023-07-24T14:58:42.303Z,47.92
2023-07-24T14:59:42.284Z,47.53
2023-07-24T15:00:42.701Z,47.66
2023-07-24T15:01:42.300Z,48.14
2023-07-24T15:02:42.295Z,46.67
2023-07-24T15:03:42.285Z,47.95
2023-07-24T15:04:42.244Z,48.05
2023-07-24T15:05:42.240Z,47.95
2023-07-24T15:06:42.249Z,47.63
2023-07-24T15:07:42.240Z,47.56
2023-07-24T15:08:42.221Z,47.88
2023-07-24T15:09:42.212Z,47.58
2023-07-24T15:10:42.205Z,47.97
2023-07-24T15:11:42.206Z,47.78
2023-07-24T15:12:42.186Z,47.97
2023-07-24T15:13:42.197Z,47.80
2023-07-24T15:14:42.179Z,47.53
2023-07-24T15:15:42.241Z,48.34
2023-07-24T15:16:42.162Z,49.03
2023-07-24T15:17:42.190Z,48.96
2023-07-24T15:18:42.140Z,49.35
2023-07-24T15:19:42.142Z,49.35
2023-07-24T15:20:42.129Z,49.35
2023-07-24T15:21:42.116Z,49.45
2023-07-24T15:22:42.178Z,49.45
2023-07-24T15:23:42.100Z,49.05
2023-07-24T15:24:42.147Z,48.96
2023-07-24T15:25:42.084Z,49.25
2023-07-24T15:26:42.079Z,49.57
2023-07-24T15:27:42.072Z,50.21
2023-07-24T15:28:42.065Z,50.93
2023-07-24T15:29:42.152Z,50.95
2023-07-24T15:30:42.044Z,50.85
2023-07-24T15:31:42.117Z,51.67
2023-07-24T15:32:42.035Z,51.18
2023-07-24T15:33:42.021Z,51.67
2023-07-24T15:34:42.021Z,51.60
2023-07-24T15:35:42.017Z,52.19
2023-07-24T15:36:42.013Z,52.41
2023-07-24T15:37:41.995Z,52.41
2023-07-24T15:38:41.985Z,52.64
2023-07-24T15:39:41.967Z,52.44
2023-07-24T15:40:41.972Z,53.26
2023-07-24T15:41:41.981Z,53.06
2023-07-24T15:42:41.955Z,53.06
2023-07-24T15:43:41.955Z,52.69
2023-07-24T15:44:41.939Z,52.89
2023-07-24T15:45:41.938Z,53.48
2023-07-24T15:46:42.057Z,53.41
2023-07-24T15:47:41.921Z,53.80
2023-07-24T15:48:41.904Z,54.03
2023-07-24T15:49:41.891Z,54.13
2023-07-24T15:50:41.889Z,54.13
2023-07-24T15:51:41.874Z,54.03
2023-07-24T15:52:41.865Z,54.75
2023-07-24T15:53:41.856Z,54.75
2023-07-24T15:54:41.855Z,54.55
2023-07-24T15:55:41.856Z,54.55
2023-07-24T15:56:41.835Z,54.72
2023-07-24T15:57:41.820Z,54.72
2023-07-24T15:58:41.809Z,54.40
2023-07-24T15:59:41.804Z,54.28
2023-07-24T16:00:41.796Z,53.96
2023-07-24T16:01:42.060Z,54.13
2023-07-24T16:02:41.888Z,53.60
2023-07-24T16:03:41.776Z,52.29
2023-07-24T16:04:41.759Z,52.88
2023-07-24T16:05:41.749Z,52.59
2023-07-24T16:06:41.734Z,52.98
2023-07-24T16:07:41.737Z,52.22
2023-07-24T16:08:41.722Z,53.01
2023-07-24T16:09:41.718Z,53.50
2023-07-24T16:10:41.702Z,53.80
2023-07-24T16:11:41.703Z,53.50
2023-07-24T16:12:41.685Z,53.31
2023-07-24T16:13:41.684Z,53.80
2023-07-24T16:14:41.676Z,53.80
2023-07-24T16:15:46.724Z,53.60
2023-07-24T16:16:41.651Z,53.41
2023-07-24T16:18:05.550Z,53.60
2023-07-24T16:18:41.678Z,53.78
2023-07-24T16:19:41.628Z,53.58
2023-07-24T16:20:41.634Z,53.58
2023-07-24T16:21:41.630Z,53.58
2023-07-24T16:22:41.604Z,53.48
2023-07-24T16:23:41.601Z,53.67
2023-07-24T16:24:41.612Z,53.28
2023-07-24T16:25:41.572Z,53.88
2023-07-24T16:26:41.581Z,54.00
2023-07-24T16:27:41.555Z,54.13
2023-07-24T16:28:41.549Z,54.45
2023-07-24T16:29:41.538Z,54.47
2023-07-24T16:30:42.608Z,55.10
2023-07-24T16:31:41.569Z,54.80
2023-07-24T16:32:49.384Z,54.50
2023-07-24T16:33:41.509Z,54.47
2023-07-24T16:34:41.495Z,53.88
2023-07-24T16:35:41.489Z,53.88
2023-07-24T16:36:41.538Z,53.78
2023-07-24T16:37:41.468Z,54.45
2023-07-24T16:38:41.460Z,54.45
2023-07-24T16:39:41.473Z,54.55
2023-07-24T16:40:41.446Z,54.62
2023-07-24T16:41:41.489Z,54.62
2023-07-24T16:42:41.442Z,54.52
2023-07-24T16:43:41.421Z,54.32
2023-07-24T16:44:41.419Z,54.42
2023-07-24T16:45:41.399Z,54.75
2023-07-24T16:46:41.415Z,55.04
2023-07-24T16:47:41.458Z,55.54
2023-07-24T16:48:41.396Z,54.77
2023-07-24T16:49:41.368Z,55.17
2023-07-24T16:50:41.395Z,55.27
2023-07-24T16:51:41.357Z,55.49
2023-07-24T16:52:41.342Z,55.72
2023-07-24T16:53:41.344Z,55.59
2023-07-24T16:54:41.326Z,55.62
2023-07-24T16:55:41.321Z,55.52
2023-07-24T16:56:41.302Z,55.62
2023-07-24T16:57:41.297Z,55.55
2023-07-24T16:58:41.291Z,55.94
2023-07-24T16:59:41.281Z,55.94
2023-07-24T17:00:41.306Z,56.24
2023-07-24T17:01:41.283Z,56.47
2023-07-24T17:02:41.267Z,56.57
2023-07-24T17:03:41.314Z,56.30
2023-07-24T17:04:41.236Z,56.10
2023-07-24T17:05:41.235Z,56.10
2023-07-24T17:06:41.214Z,56.10
2023-07-24T17:07:41.218Z,56.20
2023-07-24T17:08:41.195Z,56.40
2023-07-24T17:09:41.183Z,56.52
2023-07-24T17:10:41.179Z,56.52
2023-07-24T17:11:41.169Z,56.42
2023-07-24T17:12:41.165Z,56.52
2023-07-24T17:13:41.154Z,56.52
2023-07-24T17:14:41.140Z,56.52
2023-07-24T17:15:41.142Z,56.72
2023-07-24T17:16:41.149Z,56.52
2023-07-24T17:17:41.153Z,56.52
2023-07-24T17:18:41.119Z,56.62
2023-07-24T17:19:42.885Z,56.65
2023-07-24T17:20:41.091Z,56.45
2023-07-24T17:21:41.076Z,57.05
2023-07-24T17:22:41.063Z,56.95
2023-07-24T17:23:41.070Z,56.95
2023-07-24T17:24:41.096Z,57.05